Time;durP1;ratioP1;P1;durP2;ratioP2;P2;SDS_P1;SDS_P2;PMS_P1;PMS_P2;Temp;Humidity;BMP_temperature;BMP_pressure;BME280_temperature;BME280_humidity;BME280_pressure;Samples;Min_cycle;Max_cycle;Signal;HPM_P1;HPM_P2
2024/03/19 00:01:38;;;;;;;17.85;1.40;;;;;;;0.20;69.55;101305.34;5108763;28;20070;-73
2024/03/19 00:04:05;;;;;;;0.75;0.75;;;;;;;0.22;69.61;101300.31;5108738;28;20036;-74
2024/03/19 00:06:30;;;;;;;7.68;1.13;;;;;;;0.26;69.51;101311.56;5108724;28;20028;-73
2024/03/19 00:08:56;;;;;;;3.45;2.15;;;;;;;0.21;69.59;101295.97;5108434;28;20042;-74
2024/03/19 00:11:22;;;;;;;0.50;0.50;;;;;;;0.26;69.71;101306.44;5090466;28;20044;-73
2024/03/19 00:13:48;;;;;;;0.60;0.60;;;;;;;0.27;69.71;101297.97;5108686;28;20032;-73
2024/03/19 00:16:13;;;;;;;0.60;0.60;;;;;;;0.33;69.80;101301.72;5108593;28;20087;-74
2024/03/19 00:18:39;;;;;;;0.60;0.60;;;;;;;0.31;69.99;101302.41;5108468;28;20510;-75
2024/03/19 00:21:04;;;;;;;0.50;0.50;;;;;;;0.21;70.36;101288.31;5108080;28;20023;-73
2024/03/19 00:23:29;;;;;;;0.50;0.50;;;;;;;0.22;70.64;101295.19;5090118;28;20020;-74
2024/03/19 00:25:55;;;;;;;15.30;2.33;;;;;;;0.15;70.99;101301.69;5108463;28;20441;-74
2024/03/19 00:28:20;;;;;;;0.60;0.60;;;;;;;-0.01;71.30;101285.59;5108223;28;20020;-73
2024/03/19 00:30:45;;;;;;;0.52;0.52;;;;;;;0.02;71.82;101291.69;5108343;28;20038;-74
2024/03/19 00:33:11;;;;;;;0.55;0.55;;;;;;;-0.02;71.98;101296.59;5108254;28;20035;-73
2024/03/19 00:35:44;;;;;;;0.98;0.98;;;;;;;0.03;72.13;101291.75;5108181;28;20024;-73
2024/03/19 00:38:10;;;;;;;0.60;0.60;;;;;;;-0.06;72.48;101281.94;5108096;28;20087;-73
2024/03/19 00:40:35;;;;;;;0.50;0.50;;;;;;;-0.08;72.43;101291.19;5107935;28;20081;-73
2024/03/19 00:43:03;;;;;;;0.52;0.52;;;;;;;-0.14;72.74;101285.78;5107884;28;20069;-73
2024/03/19 00:45:29;;;;;;;0.70;0.70;;;;;;;-0.06;72.41;101283.59;5089735;28;20020;-73
2024/03/19 00:47:54;;;;;;;0.50;0.50;;;;;;;-0.03;72.27;101297.41;5107832;28;20101;-73
2024/03/19 00:50:20;;;;;;;0.60;0.60;;;;;;;-0.18;72.70;101274.56;5088457;28;20032;-74
2024/03/19 00:52:45;;;;;;;5.18;1.13;;;;;;;-0.06;72.65;101286.16;5107527;28;20113;-72
2024/03/19 00:55:10;;;;;;;0.50;0.50;;;;;;;-0.13;72.75;101290.97;5107712;28;20031;-73
2024/03/19 00:57:36;;;;;;;0.90;0.90;;;;;;;-0.12;73.05;101289.31;5107686;28;20059;-74
2024/03/19 01:00:10;;;;;;;0.50;0.50;;;;;;;-0.13;72.74;101287.56;5107742;28;20082;-74
2024/03/19 01:02:37;;;;;;;0.65;0.65;;;;;;;-0.14;72.87;101286.69;5089324;28;20020;-73
2024/03/19 01:05:02;;;;;;;0.60;0.60;;;;;;;-0.15;72.95;101286.59;5089286;28;20031;-74
2024/03/19 01:07:28;;;;;;;0.73;0.73;;;;;;;-0.18;73.09;101289.00;5107316;28;20024;-75
2024/03/19 01:09:53;;;;;;;0.80;0.80;;;;;;;-0.21;73.15;101289.72;5107137;28;20394;-73
2024/03/19 01:12:18;;;;;;;0.70;0.70;;;;;;;-0.21;73.03;101286.28;5107196;28;20028;-73
2024/03/19 01:14:44;;;;;;;0.60;0.60;;;;;;;-0.15;72.92;101284.94;5106917;28;20045;-74
2024/03/19 01:17:09;;;;;;;0.50;0.50;;;;;;;-0.14;72.96;101301.09;5107185;28;20024;-73
2024/03/19 01:19:35;;;;;;;0.60;0.60;;;;;;;-0.16;72.88;101297.63;5107086;28;20074;-74
2024/03/19 01:22:01;;;;;;;1.23;1.23;;;;;;;-0.17;73.08;101291.63;5107121;28;20028;-73
2024/03/19 01:24:26;;;;;;;0.60;0.60;;;;;;;-0.20;73.04;101288.03;5106856;28;20050;-73
2024/03/19 01:26:51;;;;;;;2.35;1.13;;;;;;;-0.26;73.01;101286.91;5107026;28;20020;-74
2024/03/19 01:29:17;;;;;;;0.57;0.57;;;;;;;-0.18;73.02;101299.22;5107027;28;20020;-74
2024/03/19 01:31:43;;;;;;;0.50;0.50;;;;;;;-0.24;73.03;101293.81;5106791;28;20099;-74
2024/03/19 01:34:09;;;;;;;8.70;1.25;;;;;;;-0.19;73.12;101289.81;5106982;28;20163;-74
2024/03/19 01:36:34;;;;;;;0.50;0.50;;;;;;;-0.20;72.96;101290.59;5106794;28;20032;-73
2024/03/19 01:38:59;;;;;;;0.50;0.50;;;;;;;-0.17;72.61;101293.28;5088465;28;20024;-74
2024/03/19 01:41:25;;;;;;;1.63;1.00;;;;;;;-0.22;72.93;101284.56;5088489;28;20461;-74
2024/03/19 01:43:50;;;;;;;0.50;0.50;;;;;;;-0.24;72.69;101274.28;5106657;28;20034;-74
2024/03/19 01:46:28;;;;;;;0.50;0.50;;;;;;;-0.20;72.94;101285.47;5088889;28;20028;-74
2024/03/19 01:48:55;;;;;;;0.60;0.60;;;;;;;-0.26;72.85;101269.06;5106662;28;20027;-74
2024/03/19 01:51:21;;;;;;;0.50;0.50;;;;;;;-0.20;72.67;101272.72;5106366;28;20487;-74
2024/03/19 01:53:48;;;;;;;0.60;0.60;;;;;;;-0.24;72.75;101269.16;5106357;28;20028;-74
2024/03/19 01:56:15;;;;;;;0.50;0.50;;;;;;;-0.28;72.97;101273.22;5106592;28;20058;-74
2024/03/19 01:58:46;;;;;;;0.70;0.70;;;;;;;-0.36;72.95;101249.00;5088290;28;20026;-74
2024/03/19 02:01:11;;;;;;;0.73;0.73;;;;;;;-0.25;72.71;101262.28;5087987;28;20024;-73
2024/03/19 02:03:37;;;;;;;0.82;0.82;;;;;;;-0.20;72.53;101268.50;5088086;28;20053;-74
2024/03/19 02:06:03;;;;;;;0.57;0.57;;;;;;;-0.24;72.19;101258.06;5106318;28;20467;-74
2024/03/19 02:08:28;;;;;;;0.50;0.50;;;;;;;-0.22;72.50;101266.69;5106033;28;20050;-74
2024/03/19 02:10:54;;;;;;;0.60;0.60;;;;;;;-0.16;72.21;101256.78;5088264;28;20077;-74
2024/03/19 02:13:19;;;;;;;0.50;0.50;;;;;;;-0.11;71.83;101257.84;5107457;28;20085;-74
2024/03/19 02:15:46;;;;;;;0.63;0.60;;;;;;;-0.20;71.71;101250.63;5106819;28;20107;-75
2024/03/19 02:18:13;;;;;;;0.45;0.45;;;;;;;-0.24;72.28;101258.97;5106152;28;20020;-75
2024/03/19 02:20:38;;;;;;;0.50;0.50;;;;;;;-0.36;72.54;101245.56;5106224;28;20472;-75
2024/03/19 02:23:04;;;;;;;0.60;0.60;;;;;;;-0.31;72.57;101257.78;5105938;28;20028;-75
2024/03/19 02:25:29;;;;;;;0.50;0.50;;;;;;;-0.30;72.31;101254.41;5106178;28;20027;-74
2024/03/19 02:27:55;;;;;;;0.50;0.50;;;;;;;-0.28;72.15;101246.81;5087726;28;20020;-75
2024/03/19 02:30:20;;;;;;;0.50;0.50;;;;;;;-0.27;72.26;101261.31;5106121;28;20027;-74
2024/03/19 02:32:45;;;;;;;0.50;0.50;;;;;;;-0.28;72.29;101260.47;5087663;28;20013;-75
2024/03/19 02:35:11;;;;;;;0.43;0.43;;;;;;;-0.27;72.24;101264.75;5087843;28;20155;-75
2024/03/19 02:37:36;;;;;;;0.50;0.50;;;;;;;-0.33;72.33;101261.03;5106074;28;20024;-75
2024/03/19 02:40:05;;;;;;;0.50;0.50;;;;;;;-0.39;72.34;101251.41;5105940;28;20035;-75
2024/03/19 02:42:30;;;;;;;0.50;0.50;;;;;;;-0.37;72.54;101262.56;5106142;28;20095;-73
2024/03/19 02:44:56;;;;;;;0.45;0.45;;;;;;;-0.38;72.69;101258.25;5087629;28;20387;-74
2024/03/19 02:47:21;;;;;;;0.50;0.50;;;;;;;-0.35;72.47;101255.84;5105875;28;20039;-74
2024/03/19 02:49:46;;;;;;;1.35;1.25;;;;;;;-0.42;72.48;101239.38;5105927;28;20087;-74
2024/03/19 02:52:12;;;;;;;7.15;1.00;;;;;;;-0.24;72.35;101263.19;5105452;28;20032;-75
2024/03/19 02:54:37;;;;;;;0.77;0.77;;;;;;;-0.31;72.28;101269.63;5105583;28;20039;-74
2024/03/19 02:57:03;;;;;;;0.50;0.50;;;;;;;-0.26;72.31;101268.19;5105631;28;20020;-74
2024/03/19 02:59:29;;;;;;;0.52;0.52;;;;;;;-0.34;72.46;101262.72;5105500;28;20092;-74
2024/03/19 03:01:56;;;;;;;0.60;0.60;;;;;;;-0.22;72.17;101251.38;5087533;28;20032;-74
2024/03/19 03:04:21;;;;;;;0.55;0.55;;;;;;;-0.35;72.12;101255.00;5087649;28;20118;-75
2024/03/19 03:06:47;;;;;;;0.80;0.80;;;;;;;-0.19;71.95;101264.28;5105800;28;20027;-75
2024/03/19 03:09:12;;;;;;;0.50;0.50;;;;;;;-0.33;72.31;101259.34;5105522;28;20031;-74
2024/03/19 03:11:37;;;;;;;0.40;0.40;;;;;;;-0.34;72.39;101262.72;5087357;28;20020;-74
2024/03/19 03:14:03;;;;;;;0.50;0.50;;;;;;;-0.49;72.58;101237.28;5090297;28;20365;-74
2024/03/19 03:16:29;;;;;;;0.60;0.60;;;;;;;-0.40;72.62;101255.63;5091345;28;20030;-74
2024/03/19 03:18:54;;;;;;;0.50;0.50;;;;;;;-0.42;72.53;101249.56;5109527;28;20116;-75
2024/03/19 03:21:19;;;;;;;0.55;0.55;;;;;;;-0.36;72.59;101251.53;5109692;28;20024;-74
2024/03/19 03:23:45;;;;;;;0.73;0.73;;;;;;;-0.43;72.65;101249.50;5109385;28;20051;-74
2024/03/19 03:26:10;;;;;;;0.50;0.50;;;;;;;-0.35;72.38;101240.53;5109457;28;20028;-75
2024/03/19 03:28:36;;;;;;;0.60;0.60;;;;;;;-0.47;72.67;101243.34;5109405;28;20073;-73
2024/03/19 03:31:02;;;;;;;1.65;1.42;;;;;;;-0.50;72.77;101241.50;5109295;28;20031;-74
2024/03/19 03:33:29;;;;;;;0.50;0.50;;;;;;;-0.52;72.90;101248.22;5109524;28;20082;-75
2024/03/19 03:35:54;;;;;;;0.50;0.50;;;;;;;-0.50;72.43;101245.75;5091140;28;20062;-75
2024/03/19 03:38:20;;;;;;;0.50;0.50;;;;;;;-0.34;72.42;101255.06;5091018;28;20032;-76
2024/03/19 03:40:46;;;;;;;0.50;0.50;;;;;;;-0.41;72.45;101258.09;5090980;28;20024;-74
2024/03/19 03:43:13;;;;;;;0.63;0.63;;;;;;;-0.47;72.64;101242.47;5109133;28;20043;-73
2024/03/19 03:45:39;;;;;;;0.80;0.80;;;;;;;-0.61;72.75;101235.00;5090942;28;20056;-73
2024/03/19 03:48:06;;;;;;;3.58;1.15;;;;;;;-0.50;72.84;101251.72;5108752;28;20099;-75
2024/03/19 03:50:31;;;;;;;0.60;0.60;;;;;;;-0.53;72.92;101250.72;5090741;28;20097;-74
2024/03/19 03:52:56;;;;;;;0.80;0.80;;;;;;;-0.53;72.94;101243.06;5108917;28;20028;-72
2024/03/19 03:55:22;;;;;;;0.60;0.60;;;;;;;-0.57;73.08;101236.03;5090353;28;20115;-75
2024/03/19 03:57:47;;;;;;;0.50;0.50;;;;;;;-0.51;72.80;101237.22;5090581;28;20039;-75
2024/03/19 04:00:17;;;;;;;0.50;0.50;;;;;;;-0.56;72.95;101241.19;5108579;28;20069;-75
2024/03/19 04:02:44;;;;;;;0.50;0.50;;;;;;;-0.57;73.10;101239.47;5090425;28;20016;-75
2024/03/19 04:05:10;;;;;;;0.43;0.43;;;;;;;-0.72;73.21;101249.78;5108667;28;20016;-74
2024/03/19 04:07:39;;;;;;;0.50;0.50;;;;;;;-0.74;73.27;101256.47;5108661;28;20024;-75
2024/03/19 04:10:05;;;;;;;0.50;0.50;;;;;;;-0.78;73.48;101255.41;5108271;28;20111;-75
2024/03/19 04:12:31;;;;;;;0.50;0.50;;;;;;;-0.76;72.90;101242.75;5108369;28;20027;-74
2024/03/19 04:14:56;;;;;;;0.65;0.65;;;;;;;-0.77;73.00;101239.31;5108805;28;20024;-75
2024/03/19 04:17:22;;;;;;;1.40;1.10;;;;;;;-0.83;73.52;101248.34;5109500;28;20277;-74
2024/03/19 04:19:47;;;;;;;0.60;0.60;;;;;;;-0.94;73.56;101227.38;5109095;28;20026;-74
2024/03/19 04:22:12;;;;;;;0.52;0.52;;;;;;;-0.94;73.84;101235.88;5108440;28;20426;-75
2024/03/19 04:24:38;;;;;;;0.75;0.75;;;;;;;-0.94;73.45;101233.34;5108152;28;20044;-74
2024/03/19 04:27:04;;;;;;;0.50;0.50;;;;;;;-0.97;73.80;101242.50;5089693;28;20020;-75
2024/03/19 04:29:29;;;;;;;0.60;0.60;;;;;;;-0.96;73.64;101236.63;5108056;28;20019;-73
2024/03/19 04:31:54;;;;;;;0.50;0.50;;;;;;;-1.08;73.71;101227.53;5089833;28;20028;-74
2024/03/19 04:34:20;;;;;;;0.60;0.60;;;;;;;-1.12;74.08;101233.28;5108340;28;20031;-74
2024/03/19 04:36:45;;;;;;;0.50;0.50;;;;;;;-1.12;74.19;101226.47;5108134;28;20042;-74
2024/03/19 04:39:16;;;;;;;0.65;0.65;;;;;;;-1.13;73.86;101217.09;5107875;28;20032;-74
2024/03/19 04:41:42;;;;;;;0.55;0.55;;;;;;;-1.15;74.34;101231.41;5108126;28;20071;-74
2024/03/19 04:44:08;;;;;;;0.85;0.70;;;;;;;-1.17;74.58;101234.69;5108045;28;20020;-76
2024/03/19 04:46:34;;;;;;;0.73;0.73;;;;;;;-1.01;73.97;101226.19;5107991;28;20098;-76
2024/03/19 04:48:59;;;;;;;0.60;0.60;;;;;;;-1.13;74.42;101232.38;5107912;28;20032;-74
2024/03/19 04:51:26;;;;;;;1.50;0.93;;;;;;;-1.14;74.16;101235.75;5107531;28;20115;-74
2024/03/19 04:53:51;;;;;;;0.50;0.50;;;;;;;-1.09;74.29;101237.63;5089375;28;20055;-74
2024/03/19 04:56:17;;;;;;;0.60;0.60;;;;;;;-1.12;74.54;101228.19;5089658;28;20024;-73
2024/03/19 04:58:43;;;;;;;0.50;0.50;;;;;;;-1.05;74.29;101242.97;5090077;28;20026;-73
2024/03/19 05:01:13;;;;;;;0.50;0.50;;;;;;;-1.13;74.72;101241.69;5107560;28;20109;-73
2024/03/19 05:03:39;;;;;;;0.73;0.73;;;;;;;-1.12;74.75;101253.66;5089263;28;20027;-75
2024/03/19 05:06:04;;;;;;;0.55;0.55;;;;;;;-1.03;74.57;101249.03;5107634;28;20020;-75
2024/03/19 05:08:31;;;;;;;0.50;0.50;;;;;;;-1.08;74.68;101245.38;5107393;28;20119;-75
2024/03/19 05:10:56;;;;;;;0.73;0.73;;;;;;;-1.00;74.32;101238.13;5107580;28;20024;-73
2024/03/19 05:13:21;;;;;;;0.50;0.50;;;;;;;-1.09;74.75;101248.72;5107187;28;20024;-74
2024/03/19 05:15:47;;;;;;;0.70;0.70;;;;;;;-1.06;74.59;101248.00;5107434;28;20023;-75
2024/03/19 05:18:12;;;;;;;0.88;0.88;;;;;;;-1.11;75.15;101250.31;5089204;28;20024;-75
2024/03/19 05:20:38;;;;;;;0.73;0.73;;;;;;;-1.01;74.73;101257.63;5107275;28;20055;-76
2024/03/19 05:23:03;;;;;;;0.57;0.57;;;;;;;-1.04;74.78;101249.81;5107126;28;20046;-74
2024/03/19 05:25:28;;;;;;;0.50;0.50;;;;;;;-1.21;75.00;101222.56;5107206;28;20413;-74
2024/03/19 05:27:54;;;;;;;0.50;0.50;;;;;;;-0.99;75.06;101255.16;5088954;28;20024;-74
2024/03/19 05:30:20;;;;;;;0.70;0.70;;;;;;;-0.98;75.01;101246.72;5107344;28;20127;-75
2024/03/19 05:32:45;;;;;;;0.60;0.60;;;;;;;-1.01;75.20;101244.88;5106994;28;20066;-75
2024/03/19 05:35:11;;;;;;;0.50;0.50;;;;;;;-0.78;75.32;101245.22;5088688;28;20020;-76
2024/03/19 05:37:37;;;;;;;0.50;0.50;;;;;;;-0.77;75.53;101239.31;5107064;28;20043;-76
2024/03/19 05:40:06;;;;;;;1.40;1.30;;;;;;;-0.64;75.08;101229.75;5107067;28;20706;-74
2024/03/19 05:42:32;;;;;;;0.50;0.50;;;;;;;-0.65;74.87;101231.41;5088805;28;20106;-74
2024/03/19 05:44:58;;;;;;;0.50;0.50;;;;;;;-0.63;74.25;101232.38;5106908;28;20015;-75
2024/03/19 05:47:23;;;;;;;1.75;0.98;;;;;;;-0.75;74.22;101224.97;5106741;28;20027;-76
2024/03/19 05:49:52;;;;;;;0.50;0.50;;;;;;;-0.66;74.28;101231.34;5088422;28;20087;-75
2024/03/19 05:52:18;;;;;;;0.88;0.88;;;;;;;-0.66;74.57;101239.00;5106439;28;20040;-76
2024/03/19 05:54:43;;;;;;;0.50;0.50;;;;;;;-0.50;73.80;101245.75;5106515;28;20016;-75
2024/03/19 05:57:09;;;;;;;0.50;0.50;;;;;;;-0.55;73.96;101242.97;5106563;28;20031;-75
2024/03/19 05:59:34;;;;;;;0.50;0.50;;;;;;;-0.54;73.95;101237.06;5106541;28;20115;-74
2024/03/19 06:02:05;;;;;;;0.50;0.50;;;;;;;-0.59;74.17;101227.44;5106272;28;20030;-75
2024/03/19 06:04:32;;;;;;;0.75;0.75;;;;;;;-0.43;73.37;101229.94;5106330;28;20379;-75
2024/03/19 06:06:57;;;;;;;0.98;0.98;;;;;;;-0.45;73.50;101233.22;5106334;28;20032;-76
2024/03/19 06:09:23;;;;;;;0.60;0.60;;;;;;;-0.57;73.65;101231.81;5105817;28;20039;-75
2024/03/19 06:11:48;;;;;;;0.98;0.65;;;;;;;-0.36;72.56;101233.69;5106294;28;20020;-77
2024/03/19 06:14:14;;;;;;;0.50;0.50;;;;;;;-0.43;72.42;101231.66;5106107;28;20054;-75
2024/03/19 06:16:40;;;;;;;0.50;0.50;;;;;;;-0.50;72.69;101236.41;5088141;28;20382;-75
2024/03/19 06:19:05;;;;;;;0.50;0.50;;;;;;;-0.55;73.37;101232.78;5087960;28;20024;-75
2024/03/19 06:21:31;;;;;;;0.50;0.50;;;;;;;-0.40;72.70;101237.75;5106129;28;20027;-75
2024/03/19 06:23:56;;;;;;;0.60;0.60;;;;;;;-0.40;72.45;101236.91;5087815;28;20016;-75
2024/03/19 06:26:22;;;;;;;0.50;0.50;;;;;;;-0.19;71.47;101226.84;5087823;28;20375;-77
2024/03/19 06:28:48;;;;;;;8.05;4.22;;;;;;;-0.27;71.65;101229.03;5106186;28;20028;-73
2024/03/19 06:31:13;;;;;;;1.15;0.85;;;;;;;-0.22;71.71;101234.38;5106276;28;20058;-76
2024/03/19 06:33:38;;;;;;;1.70;1.60;;;;;;;-0.32;71.82;101240.69;5105925;28;20028;-76
2024/03/19 06:36:05;;;;;;;0.50;0.50;;;;;;;-0.20;71.55;101247.19;5087896;28;20024;-75
2024/03/19 06:38:30;;;;;;;0.70;0.70;;;;;;;-0.05;70.92;101245.38;5105808;28;20023;-75
2024/03/19 06:40:56;;;;;;;0.60;0.60;;;;;;;-0.26;71.78;101243.53;5105917;28;20031;-76
2024/03/19 06:43:21;;;;;;;1.38;1.27;;;;;;;-0.29;71.97;101239.97;5088001;28;20020;-76
2024/03/19 06:45:47;;;;;;;0.95;0.95;;;;;;;-0.28;71.98;101244.28;5105790;28;20547;-75
2024/03/19 06:48:12;;;;;;;0.65;0.65;;;;;;;-0.26;71.96;101235.03;5107216;28;20023;-74
2024/03/19 06:50:37;;;;;;;0.50;0.50;;;;;;;-0.19;72.13;101246.41;5109870;28;20040;-76
2024/03/19 06:53:03;;;;;;;0.60;0.60;;;;;;;-0.14;71.84;101239.84;5109983;28;20025;-75
2024/03/19 06:55:31;;;;;;;0.60;0.60;;;;;;;0.05;71.34;101240.75;5109800;28;20046;-75
2024/03/19 06:57:57;;;;;;;0.80;0.80;;;;;;;0.00;71.33;101240.53;5091766;28;20024;-76
2024/03/19 07:00:22;;;;;;;0.60;0.60;;;;;;;0.01;70.92;101238.84;5109925;28;20448;-76
2024/03/19 07:02:47;;;;;;;0.45;0.45;;;;;;;0.22;70.59;101252.63;5109841;28;20047;-75
2024/03/19 07:05:13;;;;;;;0.75;0.75;;;;;;;0.01;70.87;101226.06;5109921;28;20023;-74
2024/03/19 07:07:39;;;;;;;0.55;0.55;;;;;;;0.04;71.43;101236.44;5108983;28;20024;-75
2024/03/19 07:10:05;;;;;;;0.50;0.50;;;;;;;0.11;70.26;101230.84;5091234;28;20543;-76
2024/03/19 07:12:31;;;;;;;0.50;0.50;;;;;;;0.02;70.90;101240.63;5110688;28;20038;-75
2024/03/19 07:14:59;;;;;;;0.50;0.50;;;;;;;-0.02;70.77;101231.91;5111072;28;20444;-76
2024/03/19 07:17:25;;;;;;;0.50;0.50;;;;;;;0.17;70.07;101226.03;5090905;28;20059;-75
2024/03/19 07:19:50;;;;;;;0.75;0.75;;;;;;;0.20;69.74;101226.16;5091144;28;20016;-76
2024/03/19 07:22:16;;;;;;;0.50;0.50;;;;;;;0.32;69.18;101230.09;5109098;28;20016;-74
2024/03/19 07:24:41;;;;;;;0.50;0.50;;;;;;;0.15;70.70;101236.94;5090523;28;20020;-75
2024/03/19 07:27:07;;;;;;;0.50;0.50;;;;;;;0.13;70.18;101247.09;5108675;28;20087;-76
2024/03/19 07:29:32;;;;;;;0.98;0.98;;;;;;;0.05;70.54;101243.31;5108879;28;20020;-75
2024/03/19 07:31:57;;;;;;;0.50;0.50;;;;;;;0.17;70.09;101235.34;5090019;28;20024;-75
2024/03/19 07:34:23;;;;;;;0.50;0.50;;;;;;;0.54;68.73;101241.31;5108140;28;20035;-74
2024/03/19 07:36:48;;;;;;;0.50;0.50;;;;;;;0.02;70.19;101236.38;5108470;28;20379;-75
2024/03/19 07:39:13;;;;;;;0.47;0.47;;;;;;;0.29;69.65;101240.19;5090447;28;20027;-75
2024/03/19 07:41:39;;;;;;;0.95;0.95;;;;;;;0.20;70.19;101256.81;5108993;28;20051;-75
2024/03/19 07:44:05;;;;;;;0.50;0.50;;;;;;;0.18;70.21;101240.53;5108958;28;20051;-75
2024/03/19 07:46:31;;;;;;;0.50;0.50;;;;;;;0.36;70.10;101249.88;5109156;28;20533;-76
2024/03/19 07:48:56;;;;;;;0.60;0.60;;;;;;;0.47;68.94;101253.81;5109006;28;20024;-74
2024/03/19 07:51:22;;;;;;;0.85;0.82;;;;;;;0.42;69.16;101246.72;5090616;28;20043;-75
2024/03/19 07:53:47;;;;;;;1.25;1.25;;;;;;;0.39;69.46;101252.56;5108790;28;20021;-74
2024/03/19 07:56:13;;;;;;;0.70;0.70;;;;;;;0.35;69.68;101259.19;5108820;28;20020;-75
2024/03/19 07:58:38;;;;;;;12.70;1.15;;;;;;;0.44;69.17;101247.69;5090129;28;20031;-74
2024/03/19 08:01:07;;;;;;;0.70;0.70;;;;;;;0.30;70.18;101247.91;5108771;28;20039;-74
2024/03/19 08:03:33;;;;;;;0.60;0.60;;;;;;;0.42;70.26;101256.94;5108947;28;20058;-75
2024/03/19 08:05:58;;;;;;;1.30;1.25;;;;;;;0.66;69.06;101254.66;5108774;28;20024;-73
2024/03/19 08:08:24;;;;;;;10.57;0.90;;;;;;;0.55;69.28;101243.94;5108635;28;20034;-75
2024/03/19 08:10:50;;;;;;;0.50;0.50;;;;;;;0.59;69.41;101250.09;5090393;28;20507;-75
2024/03/19 08:13:15;;;;;;;0.50;0.50;;;;;;;0.59;69.30;101247.53;5108109;28;20029;-75
2024/03/19 08:15:41;;;;;;;0.50;0.50;;;;;;;0.64;68.97;101242.63;5090083;28;20122;-74
2024/03/19 08:18:08;;;;;;;0.60;0.60;;;;;;;0.85;68.53;101247.81;5108341;28;20031;-75
2024/03/19 08:20:37;;;;;;;0.85;0.85;;;;;;;0.76;68.86;101240.63;5090163;28;20028;-75
2024/03/19 08:23:04;;;;;;;0.50;0.50;;;;;;;0.84;68.53;101240.97;5108264;28;20048;-76
2024/03/19 08:25:30;;;;;;;0.50;0.50;;;;;;;0.89;68.13;101244.63;5108067;28;20024;-75
2024/03/19 08:27:56;;;;;;;0.50;0.50;;;;;;;0.95;67.95;101241.44;5108289;28;20039;-76
2024/03/19 08:30:22;;;;;;;0.50;0.50;;;;;;;0.97;68.08;101243.28;5090083;28;20047;-74
2024/03/19 08:32:47;;;;;;;0.63;0.63;;;;;;;1.01;67.53;101244.28;5108049;28;20468;-73
2024/03/19 08:35:14;;;;;;;1.13;1.08;;;;;;;0.89;67.92;101230.94;5108099;28;20035;-74
2024/03/19 08:37:40;;;;;;;1.08;0.77;;;;;;;1.17;67.91;101248.38;5108002;28;20024;-73
2024/03/19 08:40:06;;;;;;;1.13;1.13;;;;;;;1.05;68.07;101242.72;5089699;28;20468;-73
2024/03/19 08:42:35;;;;;;;0.47;0.47;;;;;;;1.13;67.57;101227.72;5107665;28;20380;-74
2024/03/19 08:45:04;;;;;;;0.60;0.60;;;;;;;1.11;67.70;101231.09;5089692;28;20031;-74
2024/03/19 08:47:29;;;;;;;0.85;0.85;;;;;;;1.36;67.33;101226.16;5107607;28;20034;-75
2024/03/19 08:49:55;;;;;;;0.50;0.50;;;;;;;1.29;67.55;101235.28;5089304;28;20060;-74
2024/03/19 08:52:21;;;;;;;0.50;0.50;;;;;;;1.64;66.36;101229.88;5107490;28;20104;-74
2024/03/19 08:54:49;;;;;;;0.85;0.85;;;;;;;1.65;66.27;101229.06;5107641;28;20051;-75
2024/03/19 08:57:15;;;;;;;0.50;0.50;;;;;;;1.89;65.31;101223.22;5107507;28;20059;-74
2024/03/19 08:59:40;;;;;;;0.45;0.45;;;;;;;1.85;65.41;101226.47;5107296;28;20024;-75
2024/03/19 09:02:07;;;;;;;0.50;0.50;;;;;;;1.64;66.00;101232.44;5107317;28;20016;-74
2024/03/19 09:04:34;;;;;;;0.70;0.70;;;;;;;1.78;66.62;101222.78;5107633;28;20111;-75
2024/03/19 09:07:00;;;;;;;0.47;0.47;;;;;;;2.13;64.83;101217.31;5107387;28;20024;-74
2024/03/19 09:09:25;;;;;;;0.57;0.57;;;;;;;2.10;64.54;101218.09;5107298;28;20028;-73
2024/03/19 09:11:51;;;;;;;0.82;0.82;;;;;;;1.84;65.69;101214.44;5106546;28;20042;-73
2024/03/19 09:14:20;;;;;;;0.50;0.50;;;;;;;1.96;65.33;101208.97;5089162;28;20032;-74
2024/03/19 09:16:45;;;;;;;0.60;0.60;;;;;;;1.93;65.54;101209.69;5107237;28;20504;-75
2024/03/19 09:19:10;;;;;;;0.52;0.52;;;;;;;1.93;65.63;101212.25;5107222;28;20087;-73
2024/03/19 09:21:36;;;;;;;0.98;0.98;;;;;;;2.11;64.75;101218.94;5106846;28;20360;-74
2024/03/19 09:24:02;;;;;;;1.85;0.88;;;;;;;2.63;63.31;101208.06;5106631;28;20020;-74
2024/03/19 09:26:28;;;;;;;4.40;1.42;;;;;;;2.07;64.77;101217.06;5088886;28;20016;-73
2024/03/19 09:28:53;;;;;;;2.25;1.25;;;;;;;2.18;64.99;101213.25;5107127;28;20084;-72
2024/03/19 09:31:18;;;;;;;0.52;0.50;;;;;;;2.29;64.59;101212.78;5088761;28;20028;-74
2024/03/19 09:33:44;;;;;;;0.90;0.90;;;;;;;2.27;64.53;101191.38;5106645;28;20047;-74
2024/03/19 09:36:09;;;;;;;0.95;0.75;;;;;;;2.22;64.44;101209.13;5106788;28;20038;-74
2024/03/19 09:38:34;;;;;;;0.50;0.50;;;;;;;2.10;65.20;101217.19;5106642;28;20633;-72
2024/03/19 09:41:05;;;;;;;0.98;0.73;;;;;;;2.41;64.42;101217.53;5106760;28;20016;-73
2024/03/19 09:43:36;;;;;;;0.88;0.85;;;;;;;2.31;65.06;101219.75;5106740;28;20031;-72
2024/03/19 09:46:03;;;;;;;0.70;0.70;;;;;;;2.34;65.66;101217.28;5106747;28;20041;-74
2024/03/19 09:48:30;;;;;;;0.68;0.68;;;;;;;2.61;63.99;101220.84;5106751;28;20028;-73
2024/03/19 09:50:57;;;;;;;0.57;0.57;;;;;;;2.56;63.74;101212.97;5106564;28;20388;-73
2024/03/19 09:53:27;;;;;;;1.05;0.77;;;;;;;2.57;63.37;101203.59;5088452;28;20095;-74
2024/03/19 09:55:53;;;;;;;0.63;0.63;;;;;;;2.50;63.60;101217.88;5106529;28;20024;-73
2024/03/19 09:58:22;;;;;;;1.00;1.00;;;;;;;2.58;64.22;101226.72;5106462;28;20020;-72
2024/03/19 10:00:47;;;;;;;0.85;0.63;;;;;;;2.64;65.25;101217.50;5106477;28;20031;-75
2024/03/19 10:03:13;;;;;;;1.75;1.02;;;;;;;3.10;63.60;101218.31;5106302;28;20042;-74
2024/03/19 10:05:39;;;;;;;0.50;0.50;;;;;;;3.16;62.44;101225.38;5106095;28;20030;-73
2024/03/19 10:08:11;;;;;;;0.80;0.80;;;;;;;3.15;62.15;101218.47;5106139;28;20051;-76
2024/03/19 10:10:37;;;;;;;0.55;0.55;;;;;;;3.09;61.63;101214.00;5087872;28;20027;-74
2024/03/19 10:13:03;;;;;;;0.50;0.50;;;;;;;2.96;62.15;101217.81;5106152;28;20020;-75
2024/03/19 10:15:29;;;;;;;0.70;0.70;;;;;;;2.85;63.28;101210.63;5087776;28;20032;-74
2024/03/19 10:17:57;;;;;;;0.70;0.70;;;;;;;3.11;63.96;101217.50;5105767;28;20023;-74
2024/03/19 10:20:25;;;;;;;1.23;1.17;;;;;;;3.34;63.79;101215.75;5105983;28;20020;-75
2024/03/19 10:22:51;;;;;;;0.95;0.93;;;;;;;3.60;63.24;101209.75;5105794;28;20020;-75
2024/03/19 10:25:17;;;;;;;0.40;0.40;;;;;;;3.85;60.94;101215.66;5105899;28;20039;-74
2024/03/19 10:27:44;;;;;;;0.68;0.68;;;;;;;3.87;59.66;101210.59;5087622;28;20042;-74
2024/03/19 10:30:12;;;;;;;0.70;0.70;;;;;;;3.40;61.06;101207.38;5106056;28;20103;-75
2024/03/19 10:32:39;;;;;;;0.75;0.75;;;;;;;3.25;61.51;101209.41;5087852;28;20062;-75
2024/03/19 10:35:18;;;;;;;1.48;0.98;;;;;;;3.19;63.09;101213.53;5087425;28;20020;-74
2024/03/19 10:37:49;;;;;;;1.10;1.00;;;;;;;3.41;62.98;101211.69;5087470;28;20031;-75
2024/03/19 10:40:16;;;;;;;0.85;0.77;;;;;;;3.62;63.26;101215.81;5105623;28;20095;-75
2024/03/19 10:42:44;;;;;;;6.32;1.40;;;;;;;3.71;62.87;101208.41;5105624;28;20027;-76
2024/03/19 10:45:25;;;;;;;0.93;0.90;;;;;;;3.80;62.58;101206.97;5105882;28;20051;-74
2024/03/19 10:47:52;;;;;;;0.95;0.85;;;;;;;3.92;61.66;101215.06;5105797;28;20075;-74
2024/03/19 10:50:19;;;;;;;0.93;0.93;;;;;;;3.87;61.59;101201.19;5087112;28;20049;-73
2024/03/19 10:53:07;;;;;;;1.00;1.00;;;;;;;3.93;61.93;101200.53;5105260;28;20024;-75
2024/03/19 10:55:35;;;;;;;0.70;0.70;;;;;;;4.11;60.59;101197.66;5104904;28;20039;-75
2024/03/19 10:58:02;;;;;;;1.70;1.10;;;;;;;3.94;61.99;101200.59;5086542;28;20352;-75
2024/03/19 11:00:28;;;;;;;0.70;0.70;;;;;;;3.97;61.92;101208.38;5105106;28;20020;-75
2024/03/19 11:02:59;;;;;;;1.02;0.93;;;;;;;4.05;62.04;101198.34;5104596;28;20055;-75
2024/03/19 11:05:25;;;;;;;1.23;1.13;;;;;;;4.33;59.74;101201.75;5087621;28;20030;-75
2024/03/19 11:07:52;;;;;;;1.67;1.58;;;;;;;4.10;59.19;101188.22;5104995;28;20053;-75
2024/03/19 11:10:29;;;;;;;0.60;0.60;;;;;;;3.96;59.45;101195.50;5105458;28;20088;-75
2024/03/19 11:13:04;;;;;;;1.55;1.45;;;;;;;3.68;61.37;101190.31;5104751;28;20035;-76
2024/03/19 11:15:30;;;;;;;1.13;1.05;;;;;;;3.77;61.87;101194.88;5105258;28;20024;-75
2024/03/19 11:17:56;;;;;;;1.55;1.45;;;;;;;3.96;61.73;101187.78;5086934;28;20110;-75
2024/03/19 11:20:29;;;;;;;1.00;0.90;;;;;;;4.15;62.20;101180.63;5104933;28;20028;-75
2024/03/19 11:22:54;;;;;;;0.90;0.90;;;;;;;4.44;61.17;101188.38;5087107;28;20012;-75
2024/03/19 11:25:20;;;;;;;1.23;1.05;;;;;;;4.50;60.54;101187.66;5105219;28;20024;-77